上海/浦東 の空港の天気 - METARとTAF

上海浦東国際空港 ( ZSPD / PVG ) - 中国 上海市
飛行場実況気象(Metar)
観測時間01/19 05:30 CST (01/18 21:30 UTC)
風向・風速北北東 4m/s
視程3500m
天気現象もや
全天を覆う雲 雲底高度 700m
気温8℃
湿度81%
気圧1024hPa
METARZSPD 182130Z 02004MPS 3500 BR OVC023 08/05 Q1024 NOSIG
過去の天気等 Google飛行場航空写真 Wunderground天気予報

過去48時間のMETAR

飛行場予報(TAF)
発表時間: 1/18 23:14 CST (1/18 15:14 UTC)
予報対象時間: 19日2時 CST ~ 20日2時 CST
風向・風速北北東 4m/s
視程3,500m
天気現象もや
全天の8割程度の雲 雲底高度 340m
TAF ZSPD 181514Z 1818/1918 03004MPS 3500 BR BKN011 TX11/1906Z TN06/1821Z